Time;durP1;ratioP1;P1;durP2;ratioP2;P2;SDS_P1;SDS_P2;PMS_P1;PMS_P2;Temp;Humidity;BMP_temperature;BMP_pressure;BME280_temperature;BME280_humidity;BME280_pressure;Samples;Min_cycle;Max_cycle;Signal;HPM_P1;HPM_P2
2024/03/28 00:00:15;;;;;;;33.90;21.90;;;;;22.20;97592.00;;;;2058311;28;20230;-73
2024/03/28 00:01:15;;;;;;;38.07;22.17;;;;;22.10;97624.00;;;;2057515;28;20219;-73
2024/03/28 00:02:15;;;;;;;36.40;22.90;;;;;22.10;97623.00;;;;2060968;28;20241;-73
2024/03/28 00:03:16;;;;;;;35.37;22.37;;;;;22.20;97614.00;;;;2058053;28;20224;-73
2024/03/28 00:04:16;;;;;;;35.57;22.03;;;;;22.20;97614.00;;;;2066971;28;20763;-73
2024/03/28 00:05:16;;;;;;;36.23;22.30;;;;;22.10;97612.00;;;;2062004;28;20207;-73
2024/03/28 00:06:17;;;;;;;32.17;21.00;;;;;22.10;97617.00;;;;2070376;28;20728;-73
2024/03/28 00:07:17;;;;;;;36.50;20.00;;;;;22.10;97610.00;;;;2071597;28;20610;-73
2024/03/28 00:08:18;;;;;;;34.40;20.93;;;;;22.10;97623.00;;;;2066488;28;20250;-73
2024/03/28 00:09:18;;;;;;;33.13;21.33;;;;;22.10;97613.00;;;;2071002;28;20226;-73
2024/03/28 00:10:18;;;;;;;32.67;20.70;;;;;22.10;97619.00;;;;2061630;28;20237;-73
2024/03/28 00:11:19;;;;;;;34.53;19.80;;;;;22.10;97625.00;;;;2066289;28;20215;-73
2024/03/28 00:12:19;;;;;;;29.87;19.90;;;;;22.10;97623.00;;;;2069756;28;20226;-72
2024/03/28 00:13:19;;;;;;;34.07;21.10;;;;;22.10;97630.00;;;;2069585;28;20250;-72
2024/03/28 00:14:20;;;;;;;31.40;19.83;;;;;22.10;97630.00;;;;2062974;28;20222;-73
2024/03/28 00:15:20;;;;;;;30.47;19.83;;;;;22.10;97629.00;;;;2054754;28;20222;-73
2024/03/28 00:16:20;;;;;;;28.17;19.47;;;;;22.10;97634.00;;;;2070317;28;20226;-73
2024/03/28 00:17:21;;;;;;;32.50;19.43;;;;;22.10;97635.00;;;;2071287;28;20264;-73
2024/03/28 00:18:21;;;;;;;30.47;19.30;;;;;22.10;97637.00;;;;2069207;28;20277;-73
2024/03/28 00:19:21;;;;;;;29.43;19.33;;;;;22.10;97636.00;;;;2065268;28;20229;-72
2024/03/28 00:20:22;;;;;;;32.97;18.83;;;;;22.10;97635.00;;;;2057331;28;20230;-73
2024/03/28 00:21:22;;;;;;;27.33;18.50;;;;;22.10;97632.00;;;;2068801;28;20209;-72
2024/03/28 00:22:22;;;;;;;27.57;17.43;;;;;22.10;97640.00;;;;2066338;28;20277;-72
2024/03/28 00:23:23;;;;;;;34.90;20.37;;;;;22.10;97633.00;;;;2072539;28;20214;-72
2024/03/28 00:24:23;;;;;;;28.40;18.20;;;;;22.00;97627.00;;;;2066968;28;20234;-72
2024/03/28 00:25:23;;;;;;;28.63;18.07;;;;;22.10;97627.00;;;;2056567;28;21020;-72
2024/03/28 00:26:24;;;;;;;24.47;17.10;;;;;22.10;97622.00;;;;2071396;28;20718;-72
2024/03/28 00:27:24;;;;;;;28.70;17.97;;;;;22.10;97617.00;;;;2064952;28;20706;-73
2024/03/28 00:28:24;;;;;;;25.77;17.07;;;;;22.10;97613.00;;;;2068573;28;20237;-73
2024/03/28 00:29:25;;;;;;;27.60;18.40;;;;;22.10;97580.00;;;;2070420;28;20214;-73
2024/03/28 00:30:25;;;;;;;26.47;17.43;;;;;22.00;97610.00;;;;2064003;28;20230;-73
2024/03/28 00:31:26;;;;;;;32.70;18.07;;;;;22.00;97613.00;;;;2072938;28;20700;-73
2024/03/28 00:32:26;;;;;;;23.87;16.33;;;;;22.00;97604.00;;;;2071761;28;20724;-73
2024/03/28 00:33:26;;;;;;;26.97;16.50;;;;;22.00;97605.00;;;;2078541;28;20252;-72
2024/03/28 00:34:26;;;;;;;23.57;15.83;;;;;22.00;97611.00;;;;2067867;28;20226;-73
2024/03/28 00:35:27;;;;;;;25.90;16.00;;;;;22.10;97627.00;;;;2065644;28;20229;-73
2024/03/28 00:36:27;;;;;;;27.57;16.57;;;;;22.00;97621.00;;;;2072912;28;20249;-73
2024/03/28 00:37:27;;;;;;;24.00;15.90;;;;;22.00;97612.00;;;;2067087;28;20276;-73
2024/03/28 00:38:28;;;;;;;26.00;16.93;;;;;22.00;97613.00;;;;2071485;28;20222;-73
2024/03/28 00:39:28;;;;;;;25.70;16.20;;;;;22.00;97608.00;;;;2068513;28;20225;-73
2024/03/28 00:40:28;;;;;;;22.93;15.43;;;;;22.00;97609.00;;;;2055140;28;20227;-72
2024/03/28 00:41:29;;;;;;;25.53;16.63;;;;;22.00;97603.00;;;;2064211;28;20225;-73
2024/03/28 00:42:29;;;;;;;23.07;14.37;;;;;22.00;97606.00;;;;2071532;28;20226;-72
2024/03/28 00:43:29;;;;;;;25.73;16.53;;;;;22.00;97611.00;;;;2071361;28;20249;-72
2024/03/28 00:44:30;;;;;;;26.10;15.97;;;;;22.00;97601.00;;;;2068836;28;20224;-73
2024/03/28 00:45:30;;;;;;;21.33;14.87;;;;;22.00;97603.00;;;;2061761;28;20226;-73
2024/03/28 00:46:30;;;;;;;23.37;16.20;;;;;22.00;97603.00;;;;2071418;28;20263;-73
2024/03/28 00:47:31;;;;;;;24.90;14.57;;;;;22.00;97600.00;;;;2070685;28;20214;-73
2024/03/28 00:48:31;;;;;;;25.10;15.13;;;;;22.00;97579.00;;;;2071521;28;20291;-73
2024/03/28 00:49:31;;;;;;;22.43;14.13;;;;;22.00;97609.00;;;;2069990;28;20217;-73
2024/03/28 00:50:32;;;;;;;25.10;15.17;;;;;22.00;97616.00;;;;2056071;28;20254;-73
2024/03/28 00:51:32;;;;;;;24.70;14.70;;;;;22.00;97618.00;;;;2069639;28;20367;-73
2024/03/28 00:52:33;;;;;;;22.67;14.53;;;;;22.00;97616.00;;;;2071254;28;20465;-73
2024/03/28 00:53:33;;;;;;;20.10;13.00;;;;;22.00;97616.00;;;;2072003;28;20241;-73
2024/03/28 00:54:34;;;;;;;23.03;14.07;;;;;22.00;97619.00;;;;2063435;28;20220;-72
2024/03/28 00:55:34;;;;;;;23.40;13.30;;;;;22.00;97606.00;;;;2072768;28;20697;-73
2024/03/28 00:56:34;;;;;;;22.07;13.17;;;;;22.00;97604.00;;;;2072228;28;20307;-73
2024/03/28 00:57:34;;;;;;;20.40;12.80;;;;;22.00;97589.00;;;;2072597;28;20225;-73
2024/03/28 00:58:35;;;;;;;19.03;11.90;;;;;22.00;97587.00;;;;2073000;28;20232;-73
2024/03/28 00:59:35;;;;;;;19.80;11.87;;;;;22.00;97575.00;;;;2063515;28;20222;-73
2024/03/28 01:00:35;;;;;;;22.87;13.60;;;;;22.00;97567.00;;;;2079935;28;20231;-72
2024/03/28 01:01:36;;;;;;;22.97;12.40;;;;;22.00;97562.00;;;;2078789;28;20221;-73
2024/03/28 01:02:36;;;;;;;21.77;12.97;;;;;22.00;97561.00;;;;2070298;28;20224;-73
2024/03/28 01:03:36;;;;;;;20.97;12.50;;;;;21.90;97565.00;;;;2071859;28;20221;-73
2024/03/28 01:04:37;;;;;;;22.13;13.60;;;;;22.00;97566.00;;;;2055901;28;20219;-73
2024/03/28 01:05:37;;;;;;;19.47;12.67;;;;;22.00;97566.00;;;;2072578;28;20237;-73
2024/03/28 01:06:39;;;;;;;19.07;12.27;;;;;21.90;97577.00;;;;2071865;28;20222;-73
2024/03/28 01:07:39;;;;;;;17.55;11.32;;;;;22.00;97584.00;;;;2073027;28;20654;-73
2024/03/28 01:08:39;;;;;;;20.23;12.30;;;;;22.00;97590.00;;;;2072092;28;20222;-73
2024/03/28 01:09:40;;;;;;;20.70;12.20;;;;;21.90;97590.00;;;;2062870;28;20283;-73
2024/03/28 01:10:40;;;;;;;18.23;12.10;;;;;21.90;97597.00;;;;2072411;28;20222;-73
2024/03/28 01:11:40;;;;;;;17.37;11.43;;;;;21.90;97591.00;;;;2067371;28;20221;-72
2024/03/28 01:12:41;;;;;;;19.20;12.30;;;;;21.90;97586.00;;;;2068469;28;20237;-73
2024/03/28 01:13:41;;;;;;;20.07;12.73;;;;;21.90;97586.00;;;;2067083;28;20221;-73
2024/03/28 01:14:41;;;;;;;18.00;11.53;;;;;21.90;97562.00;;;;2046214;28;20226;-73
2024/03/28 01:15:42;;;;;;;17.33;11.27;;;;;21.90;97585.00;;;;2059964;28;20630;-73
2024/03/28 01:16:42;;;;;;;15.83;10.33;;;;;21.90;97578.00;;;;2063986;28;20697;-73
2024/03/28 01:17:42;;;;;;;18.23;10.97;;;;;21.90;97578.00;;;;2064502;28;20681;-73
2024/03/28 01:18:43;;;;;;;16.70;10.93;;;;;21.90;97580.00;;;;2064045;28;20698;-73
2024/03/28 01:19:43;;;;;;;19.10;11.40;;;;;21.90;97534.00;;;;2047888;28;20665;-73
2024/03/28 01:20:43;;;;;;;16.50;10.40;;;;;21.90;97576.00;;;;2072844;28;20577;-73
2024/03/28 01:21:44;;;;;;;20.50;10.60;;;;;21.90;97577.00;;;;2069507;28;20213;-73
2024/03/28 01:22:44;;;;;;;14.83;10.60;;;;;21.80;97572.00;;;;2073249;28;20206;-73
2024/03/28 01:23:44;;;;;;;16.10;11.30;;;;;21.90;97572.00;;;;2072641;28;20301;-73
2024/03/28 01:24:46;;;;;;;16.70;10.23;;;;;21.90;97569.00;;;;2062830;28;20218;-73
2024/03/28 01:25:46;;;;;;;19.08;10.85;;;;;21.90;97568.00;;;;2072149;28;20689;-73
2024/03/28 01:26:46;;;;;;;17.67;10.70;;;;;21.90;97565.00;;;;2072735;28;20222;-73
2024/03/28 01:27:47;;;;;;;15.70;10.70;;;;;21.90;97570.00;;;;2072607;28;20241;-73
2024/03/28 01:28:47;;;;;;;14.73;9.97;;;;;21.90;97567.00;;;;2072662;28;20219;-73
2024/03/28 01:29:51;;;;;;;19.80;10.97;;;;;21.90;97572.00;;;;2060812;28;20230;-73
2024/03/28 01:30:55;;;;;;;17.10;9.60;;;;;21.80;97571.00;;;;2070476;28;20210;-73
2024/03/28 01:31:56;;;;;;;13.48;8.95;;;;;21.80;97571.00;;;;2068895;28;20225;-73
2024/03/28 01:32:56;;;;;;;14.90;10.17;;;;;21.90;97565.00;;;;2071658;28;20222;-73
2024/03/28 01:33:56;;;;;;;17.73;9.77;;;;;21.90;97563.00;;;;2072790;28;20268;-73
2024/03/28 01:34:57;;;;;;;15.30;9.93;;;;;21.90;97550.00;;;;2062343;28;20268;-73
2024/03/28 01:35:57;;;;;;;15.63;9.73;;;;;21.90;97555.00;;;;2072612;28;20293;-73
2024/03/28 01:36:57;;;;;;;16.10;10.10;;;;;21.90;97554.00;;;;2071403;28;20263;-73
2024/03/28 01:37:57;;;;;;;16.93;9.17;;;;;21.90;97544.00;;;;2066330;28;20221;-73
2024/03/28 01:38:58;;;;;;;14.63;8.63;;;;;21.90;97548.00;;;;2070599;28;20211;-73
2024/03/28 01:40:00;;;;;;;14.50;9.93;;;;;21.80;97543.00;;;;2061399;28;20355;-73
2024/03/28 01:41:00;;;;;;;13.43;8.93;;;;;21.80;97537.00;;;;2066724;28;20273;-73
2024/03/28 01:42:00;;;;;;;16.57;9.00;;;;;21.80;97527.00;;;;2069464;28;20206;-73
2024/03/28 01:43:05;;;;;;;13.27;8.10;;;;;21.80;97529.00;;;;2071521;28;20218;-73
2024/03/28 01:44:05;;;;;;;15.68;8.85;;;;;21.90;97530.00;;;;2072736;28;20780;-73
2024/03/28 01:45:06;;;;;;;13.00;8.83;;;;;21.90;97533.00;;;;2054975;28;20313;-72
2024/03/28 01:46:07;;;;;;;16.40;9.53;;;;;21.80;97534.00;;;;2064196;28;20222;-73
2024/03/28 01:47:07;;;;;;;16.07;9.60;;;;;21.80;97524.00;;;;2064324;28;20446;-73
2024/03/28 01:48:07;;;;;;;13.13;8.03;;;;;21.80;97505.00;;;;2064554;28;20222;-73
2024/03/28 01:49:08;;;;;;;15.07;8.40;;;;;21.80;97530.00;;;;2064718;28;20226;-73
2024/03/28 01:50:08;;;;;;;13.20;8.43;;;;;21.80;97525.00;;;;2055420;28;20254;-73
2024/03/28 01:51:09;;;;;;;12.33;9.03;;;;;21.80;97526.00;;;;2070016;28;20297;-73
2024/03/28 01:52:10;;;;;;;12.87;8.10;;;;;21.80;97520.00;;;;2068856;28;20231;-73
2024/03/28 01:53:10;;;;;;;12.33;7.97;;;;;21.80;97519.00;;;;2067088;28;20660;-73
2024/03/28 01:54:11;;;;;;;13.20;8.00;;;;;21.80;97517.00;;;;2071657;28;20214;-73
2024/03/28 01:55:11;;;;;;;13.68;8.32;;;;;21.80;97503.00;;;;2053381;28;20928;-73
2024/03/28 01:56:13;;;;;;;11.73;7.93;;;;;21.80;97503.00;;;;2067197;28;20317;-73
2024/03/28 01:57:13;;;;;;;12.52;8.05;;;;;21.80;97470.00;;;;2071636;28;20210;-73
2024/03/28 01:58:14;;;;;;;13.40;8.10;;;;;21.80;97501.00;;;;2066022;28;20226;-72
2024/03/28 01:59:15;;;;;;;12.20;7.97;;;;;21.80;97513.00;;;;2053289;28;20276;-73
2024/03/28 02:00:16;;;;;;;12.52;7.30;;;;;21.80;97518.00;;;;2053227;28;20233;-73
2024/03/28 02:01:17;;;;;;;12.25;6.95;;;;;21.80;97519.00;;;;2064170;28;20214;-73
2024/03/28 02:02:19;;;;;;;12.27;7.80;;;;;21.80;97516.00;;;;2063123;28;20227;-73
2024/03/28 02:03:19;;;;;;;13.50;8.10;;;;;21.80;97512.00;;;;2074485;28;20476;-73
2024/03/28 02:04:20;;;;;;;11.57;7.70;;;;;21.80;97516.00;;;;2072436;28;20214;-73
2024/03/28 02:05:20;;;;;;;13.60;7.70;;;;;21.80;97525.00;;;;2066188;28;20331;-73
2024/03/28 02:06:20;;;;;;;13.90;7.87;;;;;21.80;97494.00;;;;2063275;28;20927;-73
2024/03/28 02:07:21;;;;;;;11.97;7.73;;;;;21.80;97521.00;;;;2058301;28;20861;-73
2024/03/28 02:08:21;;;;;;;13.00;8.20;;;;;21.80;97533.00;;;;2060242;28;20223;-73
2024/03/28 02:09:25;;;;;;;11.83;7.47;;;;;21.80;97533.00;;;;2071881;28;20368;-73
2024/03/28 02:10:28;;;;;;;11.07;7.25;;;;;21.80;97536.00;;;;2055412;28;20219;-73
2024/03/28 02:11:28;;;;;;;13.15;8.27;;;;;21.80;97538.00;;;;2065707;28;20219;-73
2024/03/28 02:12:31;;;;;;;12.30;7.40;;;;;21.80;97539.00;;;;2058698;28;20657;-73
2024/03/28 02:13:31;;;;;;;10.48;6.63;;;;;21.80;97545.00;;;;2060534;28;20234;-73
2024/03/28 02:14:31;;;;;;;12.00;7.63;;;;;21.80;97546.00;;;;2071240;28;20661;-72
2024/03/28 02:15:32;;;;;;;12.43;6.87;;;;;21.70;97542.00;;;;2061129;28;20666;-73
2024/03/28 02:16:35;;;;;;;12.73;7.37;;;;;21.70;97542.00;;;;2063695;28;20234;-73
2024/03/28 02:17:48;;;;;;;10.80;6.97;;;;;21.70;97548.00;;;;2063388;28;20301;-73
2024/03/28 02:18:49;;;;;;;10.63;6.00;;;;;21.80;97539.00;;;;2069831;28;20222;-73
2024/03/28 02:19:49;;;;;;;10.90;7.03;;;;;21.70;97537.00;;;;2053113;28;20274;-73
2024/03/28 02:20:49;;;;;;;10.17;6.50;;;;;21.80;97533.00;;;;2056083;28;20219;-73
2024/03/28 02:21:50;;;;;;;8.77;6.33;;;;;21.80;97535.00;;;;2063502;28;20246;-73
2024/03/28 02:22:50;;;;;;;11.93;7.17;;;;;21.70;97525.00;;;;2066937;28;20227;-73
2024/03/28 02:23:51;;;;;;;11.17;6.67;;;;;21.70;97533.00;;;;2071610;28;20237;-73
2024/03/28 02:24:51;;;;;;;10.00;6.50;;;;;21.70;97525.00;;;;2062318;28;20262;-73
2024/03/28 02:25:52;;;;;;;10.27;6.83;;;;;21.70;97531.00;;;;2070312;28;20712;-73
2024/03/28 02:26:52;;;;;;;9.60;6.00;;;;;21.70;97523.00;;;;2062648;28;20594;-71
2024/03/28 02:27:52;;;;;;;10.40;6.10;;;;;21.70;97527.00;;;;2069304;28;20704;-73
2024/03/28 02:28:53;;;;;;;9.60;5.90;;;;;21.70;97523.00;;;;2063628;28;20840;-73
2024/03/28 02:29:53;;;;;;;9.70;5.50;;;;;21.70;97530.00;;;;2057391;28;20221;-73
2024/03/28 02:30:53;;;;;;;10.77;7.07;;;;;21.70;97523.00;;;;2068275;28;20210;-73
2024/03/28 02:31:56;;;;;;;9.93;5.67;;;;;21.70;97524.00;;;;2067053;28;20229;-73
2024/03/28 02:32:56;;;;;;;8.95;5.80;;;;;21.70;97526.00;;;;2064044;28;20218;-73
2024/03/28 02:33:57;;;;;;;8.70;5.30;;;;;21.70;97513.00;;;;2068524;28;20210;-73
2024/03/28 02:34:57;;;;;;;9.87;5.30;;;;;21.70;97490.00;;;;2056493;28;20523;-72
2024/03/28 02:35:57;;;;;;;10.77;6.20;;;;;21.70;97519.00;;;;2062659;28;20623;-73
2024/03/28 02:36:58;;;;;;;9.80;5.93;;;;;21.70;97517.00;;;;2069516;28;20202;-73
2024/03/28 02:37:58;;;;;;;10.20;6.47;;;;;21.70;97524.00;;;;2070524;28;20585;-73
2024/03/28 02:38:59;;;;;;;10.90;6.83;;;;;21.70;97526.00;;;;2062551;28;20274;-73
2024/03/28 02:40:01;;;;;;;9.80;5.67;;;;;21.70;97521.00;;;;2058708;28;20713;-73
2024/03/28 02:41:01;;;;;;;10.18;5.70;;;;;21.70;97527.00;;;;2065246;28;20233;-73
2024/03/28 02:42:02;;;;;;;8.80;5.83;;;;;21.70;97525.00;;;;2062625;28;20710;-73
2024/03/28 02:43:02;;;;;;;7.90;5.33;;;;;21.70;97524.00;;;;2063073;28;20281;-73
2024/03/28 02:44:03;;;;;;;9.17;5.80;;;;;21.70;97522.00;;;;2064500;28;20226;-73
2024/03/28 02:45:03;;;;;;;8.17;5.60;;;;;21.70;97517.00;;;;2065417;28;20245;-73
2024/03/28 02:46:04;;;;;;;8.60;5.90;;;;;21.70;97513.00;;;;2078030;28;20775;-73
2024/03/28 02:47:04;;;;;;;8.70;5.30;;;;;21.70;97491.00;;;;2068880;28;20222;-73
2024/03/28 02:48:05;;;;;;;8.40;5.47;;;;;21.70;97491.00;;;;2055919;28;20212;-73
2024/03/28 02:49:05;;;;;;;8.65;5.30;;;;;21.70;97515.00;;;;2061155;28;20219;-73
2024/03/28 02:50:06;;;;;;;7.77;4.90;;;;;21.70;97503.00;;;;2068503;28;20233;-73
2024/03/28 02:51:06;;;;;;;8.07;5.10;;;;;21.70;97512.00;;;;2071285;28;20404;-73
2024/03/28 02:52:06;;;;;;;7.67;4.90;;;;;21.70;97499.00;;;;2064688;28;20211;-73
2024/03/28 02:53:07;;;;;;;7.70;4.97;;;;;21.70;97504.00;;;;2071052;28;20276;-72
2024/03/28 02:54:07;;;;;;;7.13;4.90;;;;;21.70;97516.00;;;;2069550;28;20241;-73
2024/03/28 02:55:07;;;;;;;7.80;5.03;;;;;21.70;97504.00;;;;2061521;28;20253;-73
2024/03/28 02:56:08;;;;;;;7.60;4.53;;;;;21.70;97503.00;;;;2070783;28;20214;-73
2024/03/28 02:57:08;;;;;;;9.40;5.00;;;;;21.70;97500.00;;;;2069340;28;20210;-72
2024/03/28 02:58:08;;;;;;;7.33;4.70;;;;;21.70;97503.00;;;;2067129;28;20245;-73
2024/03/28 02:59:09;;;;;;;7.60;4.73;;;;;21.70;97511.00;;;;2063377;28;20215;-72
2024/03/28 03:00:09;;;;;;;7.70;5.27;;;;;21.60;97499.00;;;;2052555;28;20269;-73
2024/03/28 03:01:10;;;;;;;8.73;4.47;;;;;21.60;97495.00;;;;2065915;28;20218;-73
2024/03/28 03:02:10;;;;;;;7.10;4.63;;;;;21.60;97503.00;;;;2069152;28;20241;-73
2024/03/28 03:03:10;;;;;;;8.00;5.17;;;;;21.60;97513.00;;;;2069749;28;20210;-73
2024/03/28 03:04:11;;;;;;;7.17;4.63;;;;;21.70;97505.00;;;;2064877;28;20246;-73
2024/03/28 03:05:11;;;;;;;10.13;4.87;;;;;21.70;97505.00;;;;2060262;28;20237;-73
2024/03/28 03:06:11;;;;;;;7.63;4.60;;;;;21.70;97500.00;;;;2064016;28;20234;-73
2024/03/28 03:07:12;;;;;;;7.27;5.00;;;;;21.70;97499.00;;;;2064833;28;20215;-73
2024/03/28 03:08:12;;;;;;;5.70;4.00;;;;;21.70;97511.00;;;;2065758;28;20229;-73
2024/03/28 03:09:12;;;;;;;6.37;4.23;;;;;21.60;97500.00;;;;2068604;28;20241;-73
2024/03/28 03:10:13;;;;;;;7.37;4.30;;;;;21.70;97490.00;;;;2053784;28;20231;-73
2024/03/28 03:11:13;;;;;;;6.73;4.30;;;;;21.70;97501.00;;;;2070638;28;20237;-73
2024/03/28 03:12:14;;;;;;;6.30;4.27;;;;;21.60;97498.00;;;;2071652;28;21390;-73
2024/03/28 03:13:14;;;;;;;6.53;3.83;;;;;21.60;97475.00;;;;2068399;28;20588;-73
2024/03/28 03:14:15;;;;;;;7.40;3.90;;;;;21.60;97498.00;;;;2063412;28;20696;-73
2024/03/28 03:15:15;;;;;;;7.40;4.80;;;;;21.60;97495.00;;;;2052390;28;20235;-73
2024/03/28 03:16:15;;;;;;;5.50;3.57;;;;;21.60;97498.00;;;;2069439;28;20217;-73
2024/03/28 03:17:16;;;;;;;5.77;3.87;;;;;21.60;97492.00;;;;2069021;28;20246;-73
2024/03/28 03:18:16;;;;;;;7.07;4.00;;;;;21.60;97493.00;;;;2062747;28;20226;-73
2024/03/28 03:19:16;;;;;;;5.17;3.47;;;;;21.60;97492.00;;;;2062486;28;20689;-73
2024/03/28 03:20:17;;;;;;;7.20;4.40;;;;;21.60;97490.00;;;;2055138;28;20226;-73
2024/03/28 03:21:18;;;;;;;7.43;3.90;;;;;21.60;97487.00;;;;2063485;28;20234;-73
2024/03/28 03:22:18;;;;;;;7.05;3.80;;;;;21.60;97484.00;;;;2062519;28;20214;-73
2024/03/28 03:23:19;;;;;;;7.10;3.90;;;;;21.60;97488.00;;;;2061352;28;20219;-73
2024/03/28 03:24:19;;;;;;;6.70;4.23;;;;;21.60;97487.00;;;;2069298;28;20253;-73
2024/03/28 03:25:26;;;;;;;5.97;3.80;;;;;21.60;97490.00;;;;2055906;28;20226;-73
2024/03/28 03:26:30;;;;;;;8.18;4.55;;;;;21.60;97484.00;;;;2062241;28;20321;-73
2024/03/28 03:27:32;;;;;;;6.97;4.15;;;;;21.60;97479.00;;;;2062660;28;20227;-73
2024/03/28 03:35:08;;;;;;;6.07;3.10;;;;;21.60;97482.00;;;;2060291;28;20230;-73
2024/03/28 03:36:08;;;;;;;5.30;3.50;;;;;21.60;97483.00;;;;2069731;28;20222;-73
2024/03/28 03:37:13;;;;;;;7.10;3.67;;;;;21.60;97480.00;;;;2070693;28;20210;-73
2024/03/28 03:38:13;;;;;;;6.10;3.40;;;;;21.60;97480.00;;;;2070443;28;20216;-73
2024/03/28 03:39:14;;;;;;;5.33;2.83;;;;;21.50;97476.00;;;;2069666;28;20226;-73
2024/03/28 03:40:15;;;;;;;5.60;3.77;;;;;21.50;97478.00;;;;2061275;28;20237;-73
2024/03/28 03:41:15;;;;;;;5.20;3.47;;;;;21.60;97479.00;;;;2070067;28;21055;-73
2024/03/28 03:42:15;;;;;;;5.83;3.37;;;;;21.60;97480.00;;;;2071439;28;23080;-73
2024/03/28 03:43:15;;;;;;;6.40;3.90;;;;;21.60;97478.00;;;;2070234;28;20610;-73
2024/03/28 03:44:16;;;;;;;4.00;2.57;;;;;21.60;97474.00;;;;2070640;28;20752;-73
2024/03/28 03:45:16;;;;;;;8.50;4.20;;;;;21.60;97480.00;;;;2060657;28;21235;-73
2024/03/28 03:46:16;;;;;;;10.80;4.13;;;;;21.50;97475.00;;;;2067865;28;20698;-73
2024/03/28 03:47:17;;;;;;;5.00;3.00;;;;;21.50;97475.00;;;;2063148;28;20218;-73
2024/03/28 03:48:17;;;;;;;6.20;3.40;;;;;21.50;97474.00;;;;2063163;28;20885;-73
2024/03/28 03:49:17;;;;;;;4.93;2.73;;;;;21.50;97475.00;;;;2060540;28;20219;-73
2024/03/28 03:50:18;;;;;;;5.77;3.00;;;;;21.60;97465.00;;;;2052346;28;20254;-73
2024/03/28 03:51:18;;;;;;;6.00;3.77;;;;;21.60;97457.00;;;;2073415;28;20226;-72
2024/03/28 03:52:18;;;;;;;4.43;2.70;;;;;21.60;97458.00;;;;2071208;28;20312;-73
2024/03/28 03:53:19;;;;;;;5.53;2.83;;;;;21.60;97456.00;;;;2075800;28;20238;-73
2024/03/28 03:54:19;;;;;;;6.33;3.30;;;;;21.60;97459.00;;;;2074001;28;20217;-73
2024/03/28 03:55:20;;;;;;;5.70;3.10;;;;;21.50;97456.00;;;;2059377;28;20226;-73
2024/03/28 03:56:20;;;;;;;6.13;3.47;;;;;21.50;97448.00;;;;2071093;28;20226;-73
2024/03/28 03:57:20;;;;;;;5.53;3.70;;;;;21.50;97456.00;;;;2067738;28;20233;-73
2024/03/28 03:58:21;;;;;;;6.93;3.23;;;;;21.50;97456.00;;;;2070597;28;20226;-73
2024/03/28 03:59:21;;;;;;;5.30;3.03;;;;;21.50;97451.00;;;;2071082;28;20321;-73
2024/03/28 04:00:22;;;;;;;4.90;3.30;;;;;21.50;97447.00;;;;2060136;28;20226;-73
2024/03/28 04:01:23;;;;;;;4.57;2.77;;;;;21.50;97444.00;;;;2070490;28;20256;-73
2024/03/28 04:02:23;;;;;;;7.03;3.50;;;;;21.50;97435.00;;;;2070383;28;20226;-73
2024/03/28 04:03:23;;;;;;;5.77;3.00;;;;;21.50;97433.00;;;;2071753;28;20468;-72
2024/03/28 04:04:23;;;;;;;4.83;2.80;;;;;21.50;97431.00;;;;2070261;28;20242;-73
2024/03/28 04:05:24;;;;;;;4.60;2.73;;;;;21.50;97428.00;;;;2061184;28;20287;-73
2024/03/28 04:06:24;;;;;;;5.27;3.23;;;;;21.50;97420.00;;;;2071149;28;20610;-73
2024/03/28 04:07:27;;;;;;;5.73;3.10;;;;;21.50;97432.00;;;;2071742;28;20652;-73
2024/03/28 04:08:28;;;;;;;4.20;2.90;;;;;21.50;97429.00;;;;2070203;28;20222;-73
2024/03/28 04:09:28;;;;;;;4.87;3.20;;;;;21.50;97430.00;;;;2067695;28;20229;-73
2024/03/28 04:10:29;;;;;;;5.97;3.13;;;;;21.50;97427.00;;;;2056471;28;20218;-73
2024/03/28 04:11:29;;;;;;;4.70;2.60;;;;;21.50;97419.00;;;;2065419;28;20215;-79
2024/03/28 04:12:29;;;;;;;5.40;3.23;;;;;21.50;97392.00;;;;2066222;28;20238;-78
2024/03/28 04:13:29;;;;;;;4.80;2.70;;;;;21.50;97409.00;;;;2052123;28;20223;-78
2024/03/28 04:14:30;;;;;;;4.53;2.53;;;;;21.50;97403.00;;;;2067786;28;20241;-75
2024/03/28 04:15:30;;;;;;;5.53;3.20;;;;;21.50;97401.00;;;;2057233;28;20220;-73
2024/03/28 04:16:31;;;;;;;5.00;2.73;;;;;21.50;97400.00;;;;2062236;28;20230;-73
2024/03/28 04:17:34;;;;;;;4.00;2.63;;;;;21.50;97387.00;;;;2061750;28;20218;-73
2024/03/28 04:18:34;;;;;;;4.72;3.13;;;;;21.50;97383.00;;;;2066469;28;20326;-73
2024/03/28 04:19:34;;;;;;;4.40;2.50;;;;;21.50;97383.00;;;;2058301;28;20226;-73
2024/03/28 04:20:40;;;;;;;3.90;2.20;;;;;21.50;97384.00;;;;2064068;28;20601;-73
2024/03/28 04:21:41;;;;;;;4.05;2.13;;;;;21.50;97389.00;;;;2069485;28;20226;-73
2024/03/28 04:22:41;;;;;;;3.77;2.50;;;;;21.50;97388.00;;;;2070863;28;20214;-73
2024/03/28 04:23:41;;;;;;;5.00;2.53;;;;;21.50;97393.00;;;;2069978;28;20312;-73
2024/03/28 04:24:42;;;;;;;3.43;2.17;;;;;21.50;97396.00;;;;2060884;28;20214;-73
2024/03/28 04:25:43;;;;;;;4.87;3.10;;;;;21.50;97385.00;;;;2071037;28;20918;-73
2024/03/28 04:26:43;;;;;;;5.10;2.57;;;;;21.50;97393.00;;;;2071481;28;20221;-73
2024/03/28 04:27:44;;;;;;;5.03;2.77;;;;;21.50;97383.00;;;;2069630;28;20608;-73
2024/03/28 04:28:44;;;;;;;4.30;2.70;;;;;21.50;97364.00;;;;2068638;28;20208;-73
2024/03/28 04:29:45;;;;;;;4.57;2.57;;;;;21.40;97329.00;;;;2052237;28;20199;-73
2024/03/28 04:30:45;;;;;;;5.80;2.90;;;;;21.50;97384.00;;;;2057806;28;20203;-73
2024/03/28 04:31:46;;;;;;;4.70;2.43;;;;;21.50;97377.00;;;;2064006;28;20222;-73
2024/03/28 04:32:46;;;;;;;4.70;2.83;;;;;21.50;97370.00;;;;2068034;28;20210;-73
2024/03/28 04:33:47;;;;;;;3.80;2.40;;;;;21.40;97376.00;;;;2060249;28;20210;-73
2024/03/28 04:34:48;;;;;;;4.47;2.20;;;;;21.50;97367.00;;;;2043420;28;20505;-73
2024/03/28 04:35:48;;;;;;;3.97;2.27;;;;;21.40;97373.00;;;;2056966;28;20223;-73
2024/03/28 04:36:49;;;;;;;4.37;2.50;;;;;21.50;97376.00;;;;2060411;28;20230;-73
2024/03/28 04:37:50;;;;;;;3.50;2.10;;;;;21.50;97375.00;;;;2058077;28;20258;-73
2024/03/28 04:38:50;;;;;;;4.83;2.40;;;;;21.50;97370.00;;;;2056301;28;20218;-73
2024/03/28 04:39:50;;;;;;;6.40;2.30;;;;;21.50;97366.00;;;;2056884;28;20214;-73
2024/03/28 04:40:51;;;;;;;4.33;2.43;;;;;21.50;97365.00;;;;2068121;28;20218;-73
2024/03/28 04:41:51;;;;;;;4.10;2.70;;;;;21.40;97362.00;;;;2068408;28;20571;-73
2024/03/28 04:42:51;;;;;;;4.50;2.33;;;;;21.40;97355.00;;;;2067385;28;20575;-73
2024/03/28 04:43:52;;;;;;;4.10;2.20;;;;;21.40;97351.00;;;;2070891;28;20249;-73
2024/03/28 04:44:52;;;;;;;4.33;2.37;;;;;21.50;97354.00;;;;2058289;28;20285;-73
2024/03/28 04:45:52;;;;;;;5.17;2.23;;;;;21.40;97347.00;;;;2070802;28;20225;-73
2024/03/28 04:46:53;;;;;;;3.50;1.90;;;;;21.40;97348.00;;;;2067784;28;20246;-72
2024/03/28 04:47:53;;;;;;;5.00;2.60;;;;;21.40;97350.00;;;;2073492;28;20285;-73
2024/03/28 04:48:53;;;;;;;4.20;2.80;;;;;21.40;97356.00;;;;2064534;28;20211;-73
2024/03/28 04:49:54;;;;;;;3.83;2.33;;;;;21.50;97353.00;;;;2051761;28;20237;-72
2024/03/28 04:50:55;;;;;;;3.70;2.17;;;;;21.40;97355.00;;;;2062994;28;20210;-73
2024/03/28 04:51:55;;;;;;;3.58;2.20;;;;;21.40;97355.00;;;;2065212;28;20230;-73
2024/03/28 04:52:56;;;;;;;3.30;1.87;;;;;21.40;97336.00;;;;2059093;28;20223;-73
2024/03/28 04:53:56;;;;;;;4.10;2.33;;;;;21.40;97349.00;;;;2076329;28;20252;-73
2024/03/28 04:54:56;;;;;;;5.10;2.40;;;;;21.40;97343.00;;;;2057394;28;20218;-73
2024/03/28 04:55:56;;;;;;;3.60;2.10;;;;;21.40;97347.00;;;;2070087;28;20225;-73
2024/03/28 04:56:57;;;;;;;4.00;2.10;;;;;21.40;97346.00;;;;2073901;28;20210;-73
2024/03/28 04:57:57;;;;;;;4.10;2.47;;;;;21.40;97342.00;;;;2067579;28;20262;-73
2024/03/28 04:58:58;;;;;;;4.47;2.30;;;;;21.40;97347.00;;;;2062832;28;20272;-73
2024/03/28 04:59:58;;;;;;;3.07;1.87;;;;;21.40;97345.00;;;;2052520;28;20769;-73
2024/03/28 05:00:59;;;;;;;4.30;2.40;;;;;21.40;97340.00;;;;2062767;28;20735;-73
2024/03/28 05:01:59;;;;;;;3.80;2.30;;;;;21.40;97347.00;;;;2069032;28;20222;-73
2024/03/28 05:03:00;;;;;;;4.60;2.60;;;;;21.40;97351.00;;;;2062401;28;20223;-73
2024/03/28 05:04:00;;;;;;;4.10;2.13;;;;;21.40;97348.00;;;;2062845;28;20247;-73
2024/03/28 05:05:05;;;;;;;4.20;2.73;;;;;21.40;97266.00;;;;2053497;28;20212;-73
2024/03/28 05:06:05;;;;;;;3.83;2.10;;;;;21.40;97340.00;;;;2069968;28;20206;-73
2024/03/28 05:07:05;;;;;;;4.67;2.50;;;;;21.40;97337.00;;;;2063366;28;20623;-73